createdAt,value
2023-04-19T00:02:21.708Z,12.23
2023-04-19T00:04:48.699Z,13.27
2023-04-19T00:07:16.979Z,13.00
2023-04-19T00:09:43.711Z,11.25
2023-04-19T00:12:10.377Z,12.35
2023-04-19T00:14:37.018Z,17.77
2023-04-19T00:17:03.850Z,10.82
2023-04-19T00:19:30.590Z,13.80
2023-04-19T00:21:57.289Z,14.48
2023-04-19T00:24:23.925Z,14.40
2023-04-19T00:26:50.673Z,15.45
2023-04-19T00:29:17.293Z,16.50
2023-04-19T00:31:44.050Z,17.92
2023-04-19T00:34:10.702Z,15.88
2023-04-19T00:36:37.791Z,10.38
2023-04-19T00:39:04.606Z,12.60
2023-04-19T00:41:31.289Z,12.85
2023-04-19T00:43:57.910Z,15.15
2023-04-19T00:46:24.914Z,14.00
2023-04-19T00:48:51.768Z,12.88
2023-04-19T00:51:18.713Z,12.90
2023-04-19T00:53:45.869Z,13.13
2023-04-19T00:56:14.771Z,15.48
2023-04-19T00:58:41.799Z,18.63
2023-04-19T01:01:08.503Z,15.23
2023-04-19T01:03:36.738Z,19.33
2023-04-19T01:06:03.787Z,18.58
2023-04-19T01:08:30.826Z,16.60
2023-04-19T01:10:57.479Z,18.20
2023-04-19T01:13:24.345Z,20.55
2023-04-19T01:15:51.729Z,18.92
2023-04-19T01:18:19.531Z,20.77
2023-04-19T01:20:46.332Z,17.38
2023-04-19T01:23:13.033Z,18.98
2023-04-19T01:25:39.839Z,18.45
2023-04-19T01:28:06.597Z,20.15
2023-04-19T01:30:33.552Z,21.60
2023-04-19T01:33:00.465Z,20.70
2023-04-19T01:35:27.198Z,22.40
2023-04-19T01:37:56.343Z,18.80
2023-04-19T01:45:17.651Z,20.13
2023-04-19T01:47:44.349Z,22.85
2023-04-19T01:50:11.147Z,20.25
2023-04-19T01:52:37.815Z,22.17
2023-04-19T01:55:04.811Z,20.52
2023-04-19T01:57:31.539Z,22.58
2023-04-19T01:59:58.202Z,21.80
2023-04-19T02:02:25.138Z,19.80
2023-04-19T02:04:51.867Z,18.30
2023-04-19T02:07:18.534Z,20.33
2023-04-19T02:09:45.214Z,17.48
2023-04-19T02:12:11.853Z,27.50
2023-04-19T02:14:38.532Z,20.38
2023-04-19T02:17:05.323Z,18.55
2023-04-19T02:19:31.950Z,16.85
2023-04-19T02:21:58.672Z,20.60
2023-04-19T02:24:25.404Z,18.23
2023-04-19T02:26:52.138Z,25.30
2023-04-19T02:29:19.126Z,20.23
2023-04-19T02:31:46.612Z,17.45
2023-04-19T02:34:13.629Z,20.08
2023-04-19T02:36:40.552Z,22.80
2023-04-19T02:39:07.460Z,21.85
2023-04-19T02:41:34.200Z,25.00
2023-04-19T02:44:00.839Z,18.67
2023-04-19T02:46:27.719Z,19.90
2023-04-19T02:48:54.370Z,20.30
2023-04-19T02:51:21.034Z,21.48
2023-04-19T02:53:47.675Z,22.27
2023-04-19T02:56:14.423Z,22.85
2023-04-19T02:58:41.168Z,19.77
2023-04-19T03:01:07.950Z,20.90
2023-04-19T03:03:34.732Z,21.58
2023-04-19T03:06:01.692Z,20.58
2023-04-19T03:08:28.350Z,21.50
2023-04-19T03:10:55.109Z,19.52
2023-04-19T03:13:21.747Z,22.60
2023-04-19T03:15:48.757Z,22.02
2023-04-19T03:18:17.023Z,20.42
2023-04-19T03:20:43.797Z,19.20
2023-04-19T03:23:10.883Z,17.40
2023-04-19T03:25:37.549Z,22.52
2023-04-19T03:28:04.390Z,17.42
2023-04-19T03:30:31.060Z,18.25
2023-04-19T03:32:58.685Z,19.65
2023-04-19T03:35:26.501Z,19.45
2023-04-19T03:37:53.165Z,18.10
2023-04-19T03:40:20.287Z,20.88
2023-04-19T03:42:46.915Z,16.58
2023-04-19T03:45:13.640Z,20.40
2023-04-19T03:47:40.387Z,18.23
2023-04-19T03:50:07.807Z,21.23
2023-04-19T03:52:34.466Z,19.85
2023-04-19T03:55:01.289Z,21.98
2023-04-19T03:57:27.988Z,17.73
2023-04-19T03:59:54.640Z,16.90
2023-04-19T04:02:21.456Z,19.25
2023-04-19T04:04:54.222Z,14.38
2023-04-19T04:07:21.378Z,24.38
2023-04-19T04:09:48.489Z,17.02
2023-04-19T04:12:15.596Z,20.42
2023-04-19T04:14:42.273Z,16.85
2023-04-19T04:17:08.977Z,17.08
2023-04-19T04:19:35.622Z,15.82
2023-04-19T04:22:02.365Z,16.40
2023-04-19T04:24:30.186Z,17.30
2023-04-19T04:26:58.060Z,21.30
2023-04-19T04:29:24.747Z,18.27
2023-04-19T04:31:51.501Z,13.30
2023-04-19T04:34:18.302Z,16.75
2023-04-19T04:36:45.306Z,20.70
2023-04-19T04:39:12.485Z,14.95
2023-04-19T04:41:42.156Z,11.75
2023-04-19T04:44:12.729Z,18.58
2023-04-19T04:46:39.795Z,34.08
2023-04-19T04:49:07.441Z,14.30
2023-04-19T04:51:34.783Z,14.98
2023-04-19T04:54:01.579Z,24.15
2023-04-19T04:56:28.339Z,18.58
2023-04-19T04:58:54.961Z,17.00
2023-04-19T05:01:22.964Z,16.67
2023-04-19T05:03:52.253Z,15.25
2023-04-19T05:08:45.829Z,14.63
2023-04-19T05:11:12.523Z,18.35
2023-04-19T05:13:39.186Z,17.42
2023-04-19T05:16:06.366Z,16.10
2023-04-19T05:18:33.180Z,21.00
2023-04-19T05:20:59.948Z,17.75
2023-04-19T05:23:26.599Z,12.43
2023-04-19T05:25:53.272Z,13.52
2023-04-19T05:28:19.934Z,12.63
2023-04-19T05:30:46.651Z,12.73
2023-04-19T05:33:13.289Z,12.48
2023-04-19T05:35:39.945Z,12.60
2023-04-19T05:38:07.010Z,12.77
2023-04-19T05:40:33.767Z,15.15
2023-04-19T05:43:00.649Z,14.35
2023-04-19T05:45:27.342Z,13.20
2023-04-19T05:47:54.001Z,14.40
2023-04-19T05:50:21.235Z,11.45
2023-04-19T05:52:48.059Z,11.90
2023-04-19T05:55:14.796Z,11.52
2023-04-19T05:57:41.595Z,16.17
2023-04-19T06:00:11.975Z,13.38
2023-04-19T06:02:38.828Z,12.32
2023-04-19T06:05:10.195Z,10.02
2023-04-19T06:07:43.175Z,18.05
2023-04-19T06:10:17.514Z,16.38
2023-04-19T06:12:44.196Z,10.70
2023-04-19T06:15:11.912Z,13.15
2023-04-19T06:17:38.597Z,14.27
2023-04-19T06:20:07.955Z,15.30
2023-04-19T06:22:34.602Z,13.48
2023-04-19T06:25:01.445Z,18.13
2023-04-19T06:27:28.157Z,12.07
2023-04-19T06:29:55.398Z,11.45
2023-04-19T06:32:22.190Z,14.70
2023-04-19T06:34:48.893Z,13.02
2023-04-19T06:37:15.560Z,11.52
2023-04-19T06:39:42.270Z,13.98
2023-04-19T06:42:09.163Z,14.27
2023-04-19T06:44:35.814Z,13.32
2023-04-19T06:47:02.672Z,13.95
2023-04-19T06:49:29.402Z,15.15
2023-04-19T06:51:56.284Z,17.83
2023-04-19T06:54:23.092Z,14.43
2023-04-19T06:56:50.327Z,15.38
2023-04-19T06:59:19.257Z,12.50
2023-04-19T07:01:47.131Z,14.23
2023-04-19T07:04:14.961Z,16.67
2023-04-19T07:06:42.306Z,12.75
2023-04-19T07:09:08.982Z,16.95
2023-04-19T07:11:35.893Z,19.52
2023-04-19T07:14:02.697Z,18.75
2023-04-19T07:16:29.504Z,14.98
2023-04-19T07:18:57.295Z,11.25
2023-04-19T07:21:26.725Z,11.88
2023-04-19T07:23:53.440Z,16.83
2023-04-19T07:26:20.448Z,17.85
2023-04-19T07:28:47.207Z,16.67
2023-04-19T07:31:18.083Z,17.48
2023-04-19T07:33:45.208Z,16.45
2023-04-19T07:36:11.937Z,16.73
2023-04-19T07:38:38.806Z,16.27
2023-04-19T07:41:06.433Z,14.95
2023-04-19T07:43:33.331Z,12.77
2023-04-19T07:46:00.203Z,14.27
2023-04-19T07:48:27.067Z,12.55
2023-04-19T07:50:53.843Z,11.95
2023-04-19T07:53:20.711Z,13.93
2023-04-19T07:55:47.378Z,14.02
2023-04-19T07:58:14.137Z,13.82
2023-04-19T08:00:40.794Z,13.18
2023-04-19T08:03:08.071Z,14.43
2023-04-19T08:05:35.142Z,14.10
2023-04-19T08:08:01.895Z,13.88
2023-04-19T08:10:30.594Z,12.10
2023-04-19T08:13:04.276Z,15.55
2023-04-19T08:18:06.141Z,18.05
2023-04-19T08:20:33.400Z,20.40
2023-04-19T08:23:07.501Z,17.08
2023-04-19T08:25:41.371Z,17.58
2023-04-19T08:28:08.095Z,16.52
2023-04-19T08:30:34.961Z,14.27
2023-04-19T08:33:01.890Z,11.77
2023-04-19T08:35:28.602Z,10.32
2023-04-19T08:37:55.446Z,16.05
2023-04-19T08:40:24.901Z,7.65
2023-04-19T08:42:51.826Z,12.77
2023-04-19T08:45:27.687Z,10.30
2023-04-19T08:48:01.259Z,9.02
2023-04-19T08:53:12.101Z,8.63
2023-04-19T08:56:03.482Z,9.48
2023-04-19T09:01:08.947Z,7.38
2023-04-19T09:03:58.371Z,9.43
2023-04-19T09:06:29.923Z,9.88
2023-04-19T09:09:28.456Z,7.20
2023-04-19T09:12:02.440Z,6.93
2023-04-19T09:14:29.852Z,9.88
2023-04-19T09:17:17.030Z,8.07
2023-04-19T09:19:48.191Z,9.50
2023-04-19T09:22:15.046Z,6.15
2023-04-19T09:27:12.486Z,6.45
2023-04-19T09:29:39.899Z,6.10
2023-04-19T09:32:07.026Z,7.13
2023-04-19T09:34:33.723Z,7.20
2023-04-19T09:37:24.879Z,7.57
2023-04-19T09:40:00.682Z,8.07
2023-04-19T09:48:03.638Z,9.00
2023-04-19T09:52:59.203Z,7.03
2023-04-19T09:55:29.182Z,6.90
2023-04-19T09:57:58.335Z,6.70
2023-04-19T10:00:25.125Z,7.63
2023-04-19T10:02:58.490Z,11.05
2023-04-19T10:05:26.417Z,7.40
2023-04-19T10:07:59.393Z,8.45
2023-04-19T10:10:41.310Z,8.05
2023-04-19T10:13:19.933Z,6.70
2023-04-19T10:15:54.173Z,6.88
2023-04-19T10:18:24.172Z,7.88
2023-04-19T10:21:10.910Z,7.63
2023-04-19T10:23:39.941Z,9.52
2023-04-19T10:26:12.630Z,7.63
2023-04-19T10:28:39.398Z,8.23
2023-04-19T10:31:06.267Z,7.90
2023-04-19T10:33:37.708Z,6.63
2023-04-19T10:36:04.966Z,8.43
2023-04-19T10:38:48.537Z,7.38
2023-04-19T10:41:17.910Z,6.20
2023-04-19T10:43:46.309Z,18.48
2023-04-19T10:46:22.067Z,12.77
2023-04-19T10:48:57.471Z,6.13
2023-04-19T10:51:28.984Z,6.78
2023-04-19T10:54:02.770Z,5.75
2023-04-19T10:56:35.882Z,8.38
2023-04-19T10:59:02.873Z,7.10
2023-04-19T11:01:38.234Z,8.60
2023-04-19T11:06:35.477Z,17.20
2023-04-19T11:09:05.543Z,20.85
2023-04-19T11:11:38.738Z,7.15
2023-04-19T11:14:08.316Z,10.77
2023-04-19T11:16:45.875Z,8.55
2023-04-19T11:19:19.905Z,11.52
2023-04-19T11:21:47.258Z,13.55
2023-04-19T11:24:16.346Z,10.32
2023-04-19T11:26:44.094Z,8.98
2023-04-19T11:29:10.910Z,7.63
2023-04-19T11:31:37.704Z,7.60
2023-04-19T11:34:04.522Z,9.52
2023-04-19T11:36:37.124Z,8.10
2023-04-19T11:39:06.742Z,9.77
2023-04-19T11:41:39.799Z,7.05
2023-04-19T11:44:17.511Z,9.75
2023-04-19T11:46:58.336Z,15.60
2023-04-19T11:49:32.582Z,7.78
2023-04-19T11:52:04.653Z,9.93
2023-04-19T11:54:33.200Z,7.97
2023-04-19T11:57:03.840Z,9.23
2023-04-19T11:59:35.718Z,10.73
2023-04-19T12:02:10.593Z,13.13
2023-04-19T12:04:38.280Z,12.27
2023-04-19T12:07:07.008Z,11.68
2023-04-19T12:09:35.911Z,12.02
2023-04-19T12:12:03.199Z,12.57
2023-04-19T12:14:30.517Z,16.10
2023-04-19T12:17:14.053Z,11.75
2023-04-19T12:19:46.874Z,13.93
2023-04-19T12:22:14.519Z,13.68
2023-04-19T12:24:41.781Z,24.20
2023-04-19T12:27:09.224Z,17.05
2023-04-19T12:29:38.077Z,13.38
2023-04-19T12:32:05.471Z,14.25
2023-04-19T12:34:32.251Z,17.98
2023-04-19T12:36:58.938Z,20.85
2023-04-19T12:39:25.871Z,13.23
2023-04-19T12:41:52.666Z,11.65
2023-04-19T12:44:19.553Z,20.27
2023-04-19T12:46:46.316Z,17.48
2023-04-19T12:49:13.190Z,18.85
2023-04-19T12:51:40.064Z,18.35
2023-04-19T12:54:07.663Z,17.50
2023-04-19T12:56:35.119Z,16.50
2023-04-19T12:59:01.865Z,13.02
2023-04-19T13:01:28.733Z,13.95
2023-04-19T13:03:58.752Z,17.10
2023-04-19T13:06:26.356Z,14.95
2023-04-19T13:08:54.869Z,13.48
2023-04-19T13:11:23.619Z,16.95
2023-04-19T13:13:51.849Z,14.63
2023-04-19T13:16:19.393Z,21.00
2023-04-19T13:18:46.508Z,16.85
2023-04-19T13:21:13.219Z,16.13
2023-04-19T13:23:39.919Z,11.02
2023-04-19T13:26:07.036Z,15.57
2023-04-19T13:28:35.990Z,12.02
2023-04-19T13:31:04.570Z,13.50
2023-04-19T13:33:31.352Z,13.27
2023-04-19T13:35:58.059Z,17.40
2023-04-19T13:38:25.235Z,11.70
2023-04-19T13:40:52.025Z,15.25
2023-04-19T13:43:18.803Z,15.13
2023-04-19T13:45:45.823Z,13.93
2023-04-19T13:48:12.564Z,11.48
2023-04-19T13:50:39.378Z,18.38
2023-04-19T13:53:06.474Z,13.73
2023-04-19T13:55:33.528Z,9.43
2023-04-19T13:58:00.334Z,11.20
2023-04-19T14:00:27.065Z,15.52
2023-04-19T14:02:55.178Z,17.98
2023-04-19T14:05:21.925Z,14.55
2023-04-19T14:07:48.608Z,9.02
2023-04-19T14:10:15.603Z,10.95
2023-04-19T14:12:42.252Z,11.52
2023-04-19T14:15:09.310Z,15.88
2023-04-19T14:17:36.171Z,19.33
2023-04-19T14:20:06.375Z,17.05
2023-04-19T14:22:35.206Z,17.08
2023-04-19T14:25:02.605Z,14.05
2023-04-19T14:27:29.395Z,13.60
2023-04-19T14:29:56.395Z,20.73
2023-04-19T14:32:26.526Z,23.77
2023-04-19T14:34:55.050Z,19.95
2023-04-19T14:37:23.345Z,13.55
2023-04-19T14:39:51.294Z,15.82
2023-04-19T14:42:20.694Z,18.48
2023-04-19T14:44:51.222Z,14.75
2023-04-19T14:47:18.281Z,12.23
2023-04-19T14:49:44.955Z,15.02
2023-04-19T14:52:11.708Z,40.40
2023-04-19T14:54:38.421Z,15.60
2023-04-19T14:57:05.160Z,16.00
2023-04-19T14:59:31.871Z,19.63
2023-04-19T15:01:58.645Z,30.95
2023-04-19T15:04:25.939Z,16.00
2023-04-19T15:06:52.761Z,20.00
2023-04-19T15:09:19.500Z,15.90
2023-04-19T15:11:46.240Z,20.15
2023-04-19T15:14:12.976Z,18.58
2023-04-19T15:16:39.694Z,29.65
2023-04-19T15:19:07.677Z,22.15
2023-04-19T15:21:34.732Z,27.55
2023-04-19T15:24:01.622Z,19.50
2023-04-19T15:26:28.416Z,24.05
2023-04-19T15:28:56.530Z,23.73
2023-04-19T15:31:25.096Z,25.50
2023-04-19T15:33:51.914Z,57.65
2023-04-19T15:36:18.639Z,19.33
2023-04-19T15:38:45.302Z,37.92
2023-04-19T15:41:12.027Z,16.58
2023-04-19T15:46:23.116Z,21.85
2023-04-19T15:48:50.679Z,21.55
2023-04-19T15:51:17.417Z,26.25
2023-04-19T15:53:44.110Z,16.63
2023-04-19T15:56:11.007Z,26.25
2023-04-19T15:58:37.816Z,33.55
2023-04-19T16:01:07.975Z,46.30
2023-04-19T16:03:34.666Z,21.27
2023-04-19T16:06:01.653Z,21.40
2023-04-19T16:08:28.340Z,22.92
2023-04-19T16:10:55.020Z,21.60
2023-04-19T16:13:21.869Z,18.55
2023-04-19T16:15:48.688Z,23.85
2023-04-19T16:18:15.442Z,23.48
2023-04-19T16:20:42.423Z,22.08
2023-04-19T16:23:09.235Z,23.40
2023-04-19T16:25:36.084Z,19.52
2023-04-19T16:28:03.138Z,23.50
2023-04-19T16:30:29.850Z,19.05
2023-04-19T16:32:57.145Z,28.92
2023-04-19T16:35:24.918Z,18.52
2023-04-19T16:37:53.221Z,19.27
2023-04-19T16:40:22.284Z,21.98
2023-04-19T16:42:48.995Z,20.40
2023-04-19T16:45:17.379Z,27.25
2023-04-19T16:47:46.373Z,21.08
2023-04-19T16:52:40.505Z,24.02
2023-04-19T16:55:08.018Z,16.77
2023-04-19T16:57:34.789Z,17.35
2023-04-19T17:00:01.670Z,30.85
2023-04-19T17:02:28.614Z,27.67
2023-04-19T17:04:56.369Z,22.10
2023-04-19T17:07:23.123Z,34.13
2023-04-19T17:09:49.855Z,18.40
2023-04-19T17:12:16.537Z,17.38
2023-04-19T17:14:43.192Z,17.17
2023-04-19T17:17:09.924Z,20.38
2023-04-19T17:19:36.992Z,15.23
2023-04-19T17:22:05.719Z,19.00
2023-04-19T17:24:35.532Z,20.20
2023-04-19T17:27:02.581Z,25.90
2023-04-19T17:29:29.310Z,21.10
2023-04-19T17:31:56.555Z,20.10
2023-04-19T17:34:23.667Z,20.20
2023-04-19T17:36:50.378Z,23.92
2023-04-19T17:39:17.563Z,25.38
2023-04-19T17:41:44.946Z,18.83
2023-04-19T17:44:12.620Z,19.85
2023-04-19T17:46:40.269Z,20.05
2023-04-19T17:49:07.071Z,25.73
2023-04-19T17:51:33.854Z,21.00
2023-04-19T17:54:00.623Z,20.88
2023-04-19T17:56:28.685Z,18.55
2023-04-19T17:58:55.399Z,24.52
2023-04-19T18:01:22.141Z,25.60
2023-04-19T18:03:49.086Z,21.42
2023-04-19T18:06:16.464Z,19.58
2023-04-19T18:08:43.993Z,22.15
2023-04-19T18:11:11.123Z,17.42
2023-04-19T18:13:37.824Z,19.90
2023-04-19T18:16:05.522Z,21.88
2023-04-19T18:18:32.382Z,18.40
2023-04-19T18:20:59.958Z,26.23
2023-04-19T18:23:26.879Z,21.92
2023-04-19T18:25:54.513Z,26.65
2023-04-19T18:28:21.484Z,23.00
2023-04-19T18:30:48.302Z,33.22
2023-04-19T18:33:15.063Z,31.15
2023-04-19T18:35:41.768Z,30.63
2023-04-19T18:38:09.377Z,22.58
2023-04-19T18:40:36.104Z,18.10
2023-04-19T18:43:02.857Z,25.73
2023-04-19T18:45:29.711Z,22.90
2023-04-19T18:47:56.482Z,19.75
2023-04-19T18:50:23.207Z,18.27
2023-04-19T18:52:49.855Z,18.00
2023-04-19T18:55:16.560Z,20.30
2023-04-19T18:57:43.436Z,22.10
2023-04-19T19:00:11.347Z,21.70
2023-04-19T19:02:40.685Z,21.33
2023-04-19T19:05:08.931Z,23.10
2023-04-19T19:07:37.422Z,25.70
2023-04-19T19:10:18.368Z,30.65
2023-04-19T19:12:48.679Z,19.52
2023-04-19T19:15:15.778Z,23.60
2023-04-19T19:17:43.781Z,22.63
2023-04-19T19:20:11.017Z,22.65
2023-04-19T19:22:37.804Z,18.63
2023-04-19T19:25:05.344Z,16.63
2023-04-19T19:27:32.078Z,22.80
2023-04-19T19:29:58.970Z,22.17
2023-04-19T19:32:25.868Z,38.42
2023-04-19T19:34:56.255Z,30.98
2023-04-19T19:37:27.744Z,37.30
2023-04-19T19:39:56.454Z,24.38
2023-04-19T19:42:23.724Z,21.25
2023-04-19T19:44:55.987Z,24.20
2023-04-19T19:47:24.172Z,33.75
2023-04-19T19:50:25.449Z,31.33
2023-04-19T19:52:37.759Z,38.13
2023-04-19T19:55:04.792Z,37.17
2023-04-19T20:02:33.867Z,26.63
2023-04-19T20:05:01.414Z,29.85
2023-04-19T20:07:42.285Z,31.85
2023-04-19T20:10:15.117Z,37.28
2023-04-19T20:12:43.131Z,33.95
2023-04-19T20:15:12.110Z,25.48
2023-04-19T20:17:40.319Z,25.63
2023-04-19T20:20:11.336Z,25.92
2023-04-19T20:22:38.472Z,28.73
2023-04-19T20:25:05.613Z,26.75
2023-04-19T20:27:32.826Z,29.60
2023-04-19T20:30:00.712Z,24.85
2023-04-19T20:32:27.517Z,24.75
2023-04-19T20:34:54.252Z,22.95
2023-04-19T20:37:23.276Z,20.63
2023-04-19T20:39:50.332Z,21.55
2023-04-19T20:42:17.364Z,21.58
2023-04-19T20:44:44.548Z,22.40
2023-04-19T20:47:13.266Z,21.92
2023-04-19T20:49:40.004Z,25.48
2023-04-19T20:52:06.702Z,23.77
2023-04-19T20:54:34.216Z,22.20
2023-04-19T20:57:04.849Z,20.90
2023-04-19T20:59:31.755Z,21.63
2023-04-19T21:01:59.217Z,25.13
2023-04-19T21:04:26.679Z,20.30
2023-04-19T21:06:53.537Z,20.13
2023-04-19T21:09:20.308Z,20.55
2023-04-19T21:11:46.969Z,21.13
2023-04-19T21:14:13.671Z,18.95
2023-04-19T21:16:40.398Z,22.58
2023-04-19T21:19:07.514Z,20.83
2023-04-19T21:21:34.186Z,27.02
2023-04-19T21:24:01.161Z,23.42
2023-04-19T21:26:27.900Z,19.42
2023-04-19T21:28:54.639Z,17.27
2023-04-19T21:31:21.335Z,19.17
2023-04-19T21:33:48.174Z,19.27
2023-04-19T21:36:15.052Z,20.98
2023-04-19T21:38:41.731Z,20.98
2023-04-19T21:41:08.382Z,25.92
2023-04-19T21:43:35.739Z,21.50
2023-04-19T21:46:04.827Z,20.50
2023-04-19T21:50:58.577Z,17.95
2023-04-19T21:53:25.270Z,19.98
2023-04-19T21:55:52.031Z,25.98
2023-04-19T21:58:19.022Z,19.50
2023-04-19T22:00:45.787Z,18.38
2023-04-19T22:03:12.710Z,19.05
2023-04-19T22:05:40.955Z,17.77
2023-04-19T22:08:07.634Z,16.85
2023-04-19T22:10:34.381Z,20.58
2023-04-19T22:13:02.530Z,17.05
2023-04-19T22:15:29.728Z,17.65
2023-04-19T22:17:57.595Z,19.40
2023-04-19T22:20:25.951Z,20.15
2023-04-19T22:22:52.792Z,16.25
2023-04-19T22:25:19.723Z,16.20
2023-04-19T22:27:48.815Z,20.52
2023-04-19T22:30:16.284Z,17.65
2023-04-19T22:32:43.080Z,16.45
2023-04-19T22:35:09.971Z,16.60
2023-04-19T22:37:36.640Z,19.27
2023-04-19T22:40:05.936Z,25.67
2023-04-19T22:45:10.084Z,19.02
2023-04-19T22:47:37.466Z,20.65
2023-04-19T22:50:04.918Z,20.48
2023-04-19T22:52:35.270Z,28.15
2023-04-19T22:55:05.678Z,21.60
2023-04-19T22:57:37.790Z,23.95
2023-04-19T23:00:05.517Z,22.55
2023-04-19T23:02:34.864Z,25.67
2023-04-19T23:05:05.269Z,20.65
2023-04-19T23:07:35.065Z,26.13
2023-04-19T23:10:03.164Z,19.65
2023-04-19T23:12:31.133Z,21.23
2023-04-19T23:14:58.421Z,19.45
2023-04-19T23:17:25.590Z,23.65
2023-04-19T23:19:52.315Z,19.05
2023-04-19T23:22:18.983Z,25.27
2023-04-19T23:24:45.694Z,21.00
2023-04-19T23:27:12.792Z,22.00
2023-04-19T23:29:39.459Z,19.13
2023-04-19T23:32:06.251Z,22.83
2023-04-19T23:34:32.963Z,26.42
2023-04-19T23:36:59.953Z,19.88
2023-04-19T23:39:26.931Z,21.50
2023-04-19T23:41:53.643Z,20.02
2023-04-19T23:44:20.497Z,22.63
2023-04-19T23:46:47.376Z,27.17
2023-04-19T23:49:14.120Z,32.95
2023-04-19T23:51:40.841Z,34.30
2023-04-19T23:54:07.495Z,33.40
2023-04-19T23:56:34.275Z,38.88
2023-04-19T23:59:00.929Z,36.38
